Time;durP1;ratioP1;P1;durP2;ratioP2;P2;SDS_P1;SDS_P2;PMS_P1;PMS_P2;Temp;Humidity;BMP_temperature;BMP_pressure;BME280_temperature;BME280_humidity;BME280_pressure;Samples;Min_cycle;Max_cycle;Signal;HPM_P1;HPM_P2
2023/09/15 00:00:11;;;;;;;;;;;15.60;73.50;;;;;;5034151;28;19959;-78
2023/09/15 00:02:36;;;;;;;;;;;15.50;73.60;;;;;;5018347;28;19913;-76
2023/09/15 00:05:02;;;;;;;;;;;15.60;73.70;;;;;;5051510;28;19924;-77
2023/09/15 00:07:29;;;;;;;;;;;15.60;73.60;;;;;;5033564;28;20104;-77
2023/09/15 00:09:55;;;;;;;;;;;15.60;73.60;;;;;;5051490;28;19920;-76
2023/09/15 00:12:20;;;;;;;;;;;15.50;73.60;;;;;;5017064;28;19913;-77
2023/09/15 00:14:46;;;;;;;;;;;15.50;73.60;;;;;;5051310;28;19913;-77
2023/09/15 00:17:12;;;;;;;;;;;15.40;73.60;;;;;;5033432;28;19913;-76
2023/09/15 00:19:40;;;;;;;;;;;15.40;73.70;;;;;;5033418;28;19926;-76
2023/09/15 00:22:05;;;;;;;;;;;15.40;73.80;;;;;;5033877;28;19925;-76
2023/09/15 00:24:31;;;;;;;;;;;15.40;73.90;;;;;;5050986;28;19920;-76
2023/09/15 00:26:58;;;;;;;;;;;15.40;73.90;;;;;;5033345;28;19971;-77
2023/09/15 00:29:23;;;;;;;;;;;15.40;73.80;;;;;;5033224;28;20006;-76
2023/09/15 00:31:49;;;;;;;;;;;15.50;73.80;;;;;;5033265;28;19955;-76
2023/09/15 00:34:15;;;;;;;;;;;15.40;73.70;;;;;;5033156;28;20288;-76
2023/09/15 00:36:42;;;;;;;;;;;15.40;73.70;;;;;;5032992;28;19920;-76
2023/09/15 00:39:07;;;;;;;;;;;15.30;73.80;;;;;;5016747;28;19998;-78
2023/09/15 00:41:33;;;;;;;;;;;15.30;73.90;;;;;;5016561;28;19963;-77
2023/09/15 00:43:58;;;;;;;;;;;15.40;73.80;;;;;;5032834;28;19913;-76
2023/09/15 00:46:24;;;;;;;;;;;15.40;73.70;;;;;;5032857;28;19913;-77
2023/09/15 00:48:51;;;;;;;;;;;15.40;73.70;;;;;;5032843;28;20250;-77
2023/09/15 00:51:17;;;;;;;;;;;15.40;73.50;;;;;;5050794;28;19913;-76
2023/09/15 00:53:43;;;;;;;;;;;15.40;73.40;;;;;;5032634;28;20206;-78
2023/09/15 00:56:09;;;;;;;;;;;15.40;73.50;;;;;;5016367;28;19912;-78
2023/09/15 00:58:40;;;;;;;;;;;15.40;73.50;;;;;;5032512;28;19913;-75
2023/09/15 01:01:06;;;;;;;;;;;15.40;73.70;;;;;;5032782;28;19916;-77
2023/09/15 01:03:34;;;;;;;;;;;15.30;73.50;;;;;;5050192;28;19948;-75
2023/09/15 01:06:01;;;;;;;;;;;15.20;73.50;;;;;;5050850;28;19916;-75
2023/09/15 01:08:26;;;;;;;;;;;15.20;73.70;;;;;;5050900;28;19948;-75
2023/09/15 01:10:52;;;;;;;;;;;15.10;73.70;;;;;;5050413;28;19990;-76
2023/09/15 01:13:17;;;;;;;;;;;15.10;73.90;;;;;;5015913;28;19947;-75
2023/09/15 01:15:52;;;;;;;;;;;15.10;73.90;;;;;;5032279;28;20019;-75
2023/09/15 01:18:30;;;;;;;;;;;15.10;73.90;;;;;;5032237;28;20324;-75
2023/09/15 01:20:55;;;;;;;;;;;15.10;73.90;;;;;;5032054;28;20043;-75
2023/09/15 01:23:25;;;;;;;;;;;15.10;73.80;;;;;;5032263;28;20019;-75
2023/09/15 01:26:00;;;;;;;;;;;15.10;73.90;;;;;;5050062;28;19912;-75
2023/09/15 01:28:35;;;;;;;;;;;15.10;74.00;;;;;;5032130;28;19972;-75
2023/09/15 01:31:01;;;;;;;;;;;15.20;73.90;;;;;;5050570;28;20208;-76
2023/09/15 01:33:27;;;;;;;;;;;15.30;73.80;;;;;;5049885;28;20015;-76
2023/09/15 01:35:53;;;;;;;;;;;15.30;73.70;;;;;;5032098;28;19967;-76
2023/09/15 01:38:18;;;;;;;;;;;15.30;73.60;;;;;;5049776;28;19917;-75
2023/09/15 01:40:44;;;;;;;;;;;15.30;73.50;;;;;;5015414;28;19913;-76
2023/09/15 01:43:10;;;;;;;;;;;15.30;73.50;;;;;;5031974;28;19929;-75
2023/09/15 01:45:35;;;;;;;;;;;15.20;73.70;;;;;;5015314;28;19962;-75
2023/09/15 01:48:01;;;;;;;;;;;15.20;73.80;;;;;;5049680;28;19921;-75
2023/09/15 01:50:28;;;;;;;;;;;15.20;73.80;;;;;;5049571;28;19916;-75
2023/09/15 01:52:54;;;;;;;;;;;15.20;74.30;;;;;;5031582;28;19912;-76
2023/09/15 01:55:21;;;;;;;;;;;15.20;73.70;;;;;;5049498;28;19916;-75
2023/09/15 01:57:47;;;;;;;;;;;15.20;73.70;;;;;;5049420;28;19974;-75
2023/09/15 02:00:12;;;;;;;;;;;15.10;73.70;;;;;;5015014;28;20384;-75
2023/09/15 02:02:38;;;;;;;;;;;15.10;73.90;;;;;;5031688;28;19916;-75
2023/09/15 02:05:04;;;;;;;;;;;15.10;73.90;;;;;;5031263;28;20288;-75
2023/09/15 02:07:29;;;;;;;;;;;15.00;73.90;;;;;;5031398;28;19987;-75
2023/09/15 02:09:55;;;;;;;;;;;15.00;73.90;;;;;;5031248;28;19912;-75
2023/09/15 02:12:20;;;;;;;;;;;15.00;74.00;;;;;;5031219;28;19910;-77
2023/09/15 02:14:46;;;;;;;;;;;14.90;74.00;;;;;;5031170;28;19923;-77
2023/09/15 02:17:15;;;;;;;;;;;14.90;74.10;;;;;;5030401;28;19920;-77
2023/09/15 02:19:41;;;;;;;;;;;14.80;74.10;;;;;;5049201;28;20311;-75
2023/09/15 02:22:07;;;;;;;;;;;14.80;74.20;;;;;;5030876;28;19929;-75
2023/09/15 02:24:33;;;;;;;;;;;14.80;74.20;;;;;;5048999;28;19923;-75
2023/09/15 02:26:59;;;;;;;;;;;14.80;74.20;;;;;;5030965;28;19920;-75
2023/09/15 02:29:25;;;;;;;;;;;14.80;74.10;;;;;;5031015;28;19908;-75
2023/09/15 02:31:51;;;;;;;;;;;14.80;74.10;;;;;;5014460;28;19916;-75
2023/09/15 02:34:17;;;;;;;;;;;14.80;74.10;;;;;;5048853;28;19912;-75
2023/09/15 02:36:43;;;;;;;;;;;14.80;74.10;;;;;;5048691;28;19916;-77
2023/09/15 02:39:09;;;;;;;;;;;14.80;74.10;;;;;;5048691;28;19956;-75
2023/09/15 02:41:35;;;;;;;;;;;14.90;74.10;;;;;;5014412;28;19958;-75
2023/09/15 02:44:01;;;;;;;;;;;14.90;74.00;;;;;;5030685;28;19919;-75
2023/09/15 02:46:26;;;;;;;;;;;14.90;73.90;;;;;;5048430;28;19912;-75
2023/09/15 02:48:52;;;;;;;;;;;15.00;73.90;;;;;;5048478;28;20360;-75
2023/09/15 02:51:18;;;;;;;;;;;14.90;73.80;;;;;;5030470;28;20361;-75
2023/09/15 02:53:43;;;;;;;;;;;14.90;73.80;;;;;;5048461;28;19940;-75
2023/09/15 02:56:09;;;;;;;;;;;14.80;73.90;;;;;;5030580;28;19912;-77
2023/09/15 02:58:34;;;;;;;;;;;14.70;74.10;;;;;;5030414;28;19920;-74
2023/09/15 03:01:09;;;;;;;;;;;14.60;74.10;;;;;;5048219;28;19919;-77
2023/09/15 03:03:35;;;;;;;;;;;14.60;74.20;;;;;;5048349;28;19920;-74
2023/09/15 03:06:04;;;;;;;;;;;14.50;74.30;;;;;;5013776;28;19913;-75
2023/09/15 03:08:29;;;;;;;;;;;14.60;74.40;;;;;;5030271;28;20415;-75
2023/09/15 03:10:55;;;;;;;;;;;14.60;74.40;;;;;;5048205;28;19921;-75
2023/09/15 03:13:21;;;;;;;;;;;14.60;74.20;;;;;;5048061;28;19915;-75
2023/09/15 03:15:46;;;;;;;;;;;14.60;74.20;;;;;;5013667;28;20408;-75
2023/09/15 03:18:12;;;;;;;;;;;14.60;74.20;;;;;;5030224;28;19948;-75
2023/09/15 03:20:37;;;;;;;;;;;14.60;74.10;;;;;;5048172;28;19924;-74
2023/09/15 03:23:03;;;;;;;;;;;14.70;74.20;;;;;;5029981;28;20431;-75
2023/09/15 03:25:28;;;;;;;;;;;14.70;74.30;;;;;;5030058;28;20272;-75
2023/09/15 03:27:54;;;;;;;;;;;14.70;74.20;;;;;;5047790;28;19967;-75
2023/09/15 03:30:20;;;;;;;;;;;14.70;74.20;;;;;;5029984;28;19960;-75
2023/09/15 03:32:47;;;;;;;;;;;14.80;74.20;;;;;;5047927;28;20369;-75
2023/09/15 03:35:13;;;;;;;;;;;14.80;74.00;;;;;;5029848;28;20333;-76
2023/09/15 03:37:39;;;;;;;;;;;14.80;74.00;;;;;;5047771;28;19913;-76
2023/09/15 03:40:07;;;;;;;;;;;14.80;74.00;;;;;;5013326;28;19917;-76
2023/09/15 03:42:33;;;;;;;;;;;14.80;74.10;;;;;;5029756;28;19920;-76
2023/09/15 03:44:59;;;;;;;;;;;14.80;74.00;;;;;;5029602;28;19919;-75
2023/09/15 03:47:25;;;;;;;;;;;14.80;74.00;;;;;;5047689;28;19913;-75
2023/09/15 03:49:51;;;;;;;;;;;14.70;74.00;;;;;;5029844;28;19924;-76
2023/09/15 03:52:16;;;;;;;;;;;14.70;74.20;;;;;;5029552;28;20372;-76
2023/09/15 03:54:42;;;;;;;;;;;14.70;74.20;;;;;;5013083;28;19913;-76
2023/09/15 03:57:07;;;;;;;;;;;14.70;74.10;;;;;;5029559;28;19998;-76
2023/09/15 03:59:34;;;;;;;;;;;14.70;74.10;;;;;;5029350;28;20367;-76
2023/09/15 04:02:00;;;;;;;;;;;14.60;74.10;;;;;;5047549;28;20007;-76
2023/09/15 04:04:26;;;;;;;;;;;14.70;74.20;;;;;;5029659;28;20451;-75
2023/09/15 04:06:53;;;;;;;;;;;14.70;74.20;;;;;;5047231;28;19971;-76
2023/09/15 04:09:19;;;;;;;;;;;14.70;74.30;;;;;;5047420;28;20448;-75
2023/09/15 04:11:44;;;;;;;;;;;14.70;74.30;;;;;;5047387;28;19909;-75
2023/09/15 04:14:10;;;;;;;;;;;14.80;74.20;;;;;;5013132;28;20047;-75
2023/09/15 04:16:37;;;;;;;;;;;14.90;74.10;;;;;;5029455;28;20004;-76
2023/09/15 04:19:03;;;;;;;;;;;14.90;73.90;;;;;;5029316;28;20377;-76
2023/09/15 04:21:29;;;;;;;;;;;14.90;73.90;;;;;;5047271;28;20078;-75
2023/09/15 04:23:54;;;;;;;;;;;14.90;73.90;;;;;;5029626;28;20356;-75
2023/09/15 04:26:20;;;;;;;;;;;14.80;73.80;;;;;;5029280;28;19909;-75
2023/09/15 04:28:46;;;;;;;;;;;14.90;74.00;;;;;;5047389;28;19971;-75
2023/09/15 04:31:11;;;;;;;;;;;14.80;74.00;;;;;;5029384;28;19909;-75
2023/09/15 04:33:37;;;;;;;;;;;14.80;74.10;;;;;;5012923;28;19954;-75
2023/09/15 04:36:03;;;;;;;;;;;14.70;74.00;;;;;;5029466;28;19921;-75
2023/09/15 04:38:30;;;;;;;;;;;14.70;74.10;;;;;;5029250;28;20277;-75
2023/09/15 04:40:55;;;;;;;;;;;14.60;74.10;;;;;;5033127;28;19909;-75
2023/09/15 04:43:21;;;;;;;;;;;14.60;74.20;;;;;;5032952;28;20004;-75
2023/09/15 04:45:47;;;;;;;;;;;14.60;74.20;;;;;;5050788;28;19916;-76
2023/09/15 04:48:12;;;;;;;;;;;14.60;74.30;;;;;;5032854;28;19961;-75
2023/09/15 04:50:38;;;;;;;;;;;14.60;74.30;;;;;;5032780;28;19913;-76
2023/09/15 04:53:04;;;;;;;;;;;14.60;74.20;;;;;;5032681;28;19913;-76
2023/09/15 04:55:30;;;;;;;;;;;14.60;74.20;;;;;;5050566;28;19908;-76
2023/09/15 04:57:56;;;;;;;;;;;14.70;74.30;;;;;;5050611;28;19932;-76
2023/09/15 05:00:25;;;;;;;;;;;14.70;74.20;;;;;;5032437;28;19917;-76
2023/09/15 05:02:50;;;;;;;;;;;14.70;74.20;;;;;;5050513;28;19959;-75
2023/09/15 05:05:16;;;;;;;;;;;14.70;74.10;;;;;;5015984;28;19952;-75
2023/09/15 05:07:42;;;;;;;;;;;14.70;74.10;;;;;;5050469;28;19928;-75
2023/09/15 05:10:11;;;;;;;;;;;14.70;74.20;;;;;;5032468;28;19909;-76
2023/09/15 05:12:36;;;;;;;;;;;14.70;74.20;;;;;;5033112;28;19924;-76
2023/09/15 05:15:06;;;;;;;;;;;14.70;74.30;;;;;;5032509;28;19940;-75
2023/09/15 05:17:32;;;;;;;;;;;14.70;74.10;;;;;;5050128;28;19936;-75
2023/09/15 05:19:58;;;;;;;;;;;14.70;74.20;;;;;;5049874;28;19913;-75
2023/09/15 05:22:23;;;;;;;;;;;14.70;74.30;;;;;;5032301;28;19917;-75
2023/09/15 05:24:49;;;;;;;;;;;14.70;74.30;;;;;;5032026;28;19937;-75
2023/09/15 05:27:14;;;;;;;;;;;14.70;74.40;;;;;;5032027;28;19960;-75
2023/09/15 05:29:40;;;;;;;;;;;14.70;74.30;;;;;;5032028;28;19967;-75
2023/09/15 05:32:06;;;;;;;;;;;14.70;74.30;;;;;;5031662;28;19909;-75
2023/09/15 05:34:31;;;;;;;;;;;14.60;74.30;;;;;;5015431;28;19913;-75
2023/09/15 05:36:57;;;;;;;;;;;14.60;74.40;;;;;;5049785;28;19917;-75
2023/09/15 05:39:22;;;;;;;;;;;14.70;74.50;;;;;;5031893;28;20027;-75
2023/09/15 05:41:48;;;;;;;;;;;14.70;74.40;;;;;;5031939;28;20276;-73
2023/09/15 05:44:15;;;;;;;;;;;14.70;74.30;;;;;;5049651;28;19915;-72
2023/09/15 05:46:41;;;;;;;;;;;14.60;74.10;;;;;;5049499;28;19913;-72
2023/09/15 05:49:07;;;;;;;;;;;14.50;74.10;;;;;;5031531;28;19920;-73
2023/09/15 05:51:32;;;;;;;;;;;14.50;74.30;;;;;;5048409;28;20078;-76
2023/09/15 05:53:58;;;;;;;;;;;14.40;74.30;;;;;;5031626;28;19971;-75
2023/09/15 05:56:23;;;;;;;;;;;14.30;74.30;;;;;;5031501;28;19909;-75
2023/09/15 05:58:49;;;;;;;;;;;14.30;74.40;;;;;;5031650;28;20031;-75
2023/09/15 06:01:15;;;;;;;;;;;14.20;74.40;;;;;;5031398;28;20407;-75
2023/09/15 06:03:42;;;;;;;;;;;14.30;74.50;;;;;;5050899;28;19930;-76
2023/09/15 06:06:07;;;;;;;;;;;14.30;74.50;;;;;;5031875;28;19920;-75
2023/09/15 06:08:33;;;;;;;;;;;14.20;74.40;;;;;;5048880;28;19917;-75
2023/09/15 06:11:00;;;;;;;;;;;14.30;74.60;;;;;;5014754;28;19924;-75
2023/09/15 06:13:25;;;;;;;;;;;14.30;74.50;;;;;;5049122;28;20020;-75
2023/09/15 06:15:51;;;;;;;;;;;14.30;74.40;;;;;;5031001;28;20000;-75
2023/09/15 06:18:17;;;;;;;;;;;14.30;74.40;;;;;;5030835;28;19967;-75
2023/09/15 06:20:42;;;;;;;;;;;14.30;74.50;;;;;;5013932;28;20412;-76
2023/09/15 06:23:08;;;;;;;;;;;14.30;74.40;;;;;;5030002;28;19917;-76
2023/09/15 06:25:34;;;;;;;;;;;14.40;74.40;;;;;;5030085;28;19920;-76
2023/09/15 06:28:00;;;;;;;;;;;14.40;74.50;;;;;;5029833;28;20326;-76
2023/09/15 06:30:26;;;;;;;;;;;14.40;74.40;;;;;;5029750;28;19913;-76
2023/09/15 06:32:52;;;;;;;;;;;14.40;74.30;;;;;;5029760;28;20235;-76
2023/09/15 06:35:17;;;;;;;;;;;14.50;74.30;;;;;;5047437;28;19913;-76
2023/09/15 06:37:43;;;;;;;;;;;14.40;74.30;;;;;;5012757;28;20327;-76
2023/09/15 06:40:10;;;;;;;;;;;14.40;74.30;;;;;;5012962;28;19921;-76
2023/09/15 06:42:36;;;;;;;;;;;14.40;74.40;;;;;;5047330;28;19974;-76
2023/09/15 06:45:02;;;;;;;;;;;14.50;74.30;;;;;;5029512;28;20049;-76
2023/09/15 06:47:28;;;;;;;;;;;14.50;74.30;;;;;;5047544;28;20053;-76
2023/09/15 06:49:53;;;;;;;;;;;14.40;74.30;;;;;;5029344;28;19979;-76
2023/09/15 06:52:19;;;;;;;;;;;14.50;74.30;;;;;;5029577;28;20284;-76
2023/09/15 06:54:44;;;;;;;;;;;14.50;74.20;;;;;;5012773;28;19913;-76
2023/09/15 06:57:10;;;;;;;;;;;14.50;74.20;;;;;;5029340;28;19924;-76
2023/09/15 06:59:36;;;;;;;;;;;14.50;74.20;;;;;;5012718;28;19987;-76
2023/09/15 07:02:02;;;;;;;;;;;14.60;74.20;;;;;;5028257;28;20397;-76
2023/09/15 07:04:31;;;;;;;;;;;14.60;74.20;;;;;;5029210;28;19952;-76
2023/09/15 07:06:57;;;;;;;;;;;14.60;74.20;;;;;;5046985;28;19959;-76
2023/09/15 07:09:22;;;;;;;;;;;14.60;74.80;;;;;;5046653;28;19956;-76
2023/09/15 07:11:48;;;;;;;;;;;14.60;74.40;;;;;;5012578;28;19917;-76
2023/09/15 07:14:14;;;;;;;;;;;14.60;74.30;;;;;;5029209;28;20215;-75
2023/09/15 07:16:41;;;;;;;;;;;14.60;74.30;;;;;;5028843;28;19927;-76
2023/09/15 07:19:06;;;;;;;;;;;14.60;74.20;;;;;;5029236;28;19994;-76
2023/09/15 07:21:32;;;;;;;;;;;14.70;74.20;;;;;;4979431;28;1933166;-76
2023/09/15 07:23:59;;;;;;;;;;;14.70;74.20;;;;;;5047729;28;19912;-76
2023/09/15 07:26:26;;;;;;;;;;;14.70;74.20;;;;;;5030148;28;20007;-76
2023/09/15 07:28:52;;;;;;;;;;;14.60;74.30;;;;;;5013727;28;19965;-76
2023/09/15 07:31:19;;;;;;;;;;;14.50;74.20;;;;;;5047633;28;19967;-76
2023/09/15 07:33:45;;;;;;;;;;;14.50;74.50;;;;;;5047605;28;20030;-76
2023/09/15 07:36:11;;;;;;;;;;;14.60;74.50;;;;;;5029544;28;19916;-75
2023/09/15 07:38:37;;;;;;;;;;;14.70;74.40;;;;;;5047386;28;19908;-76
2023/09/15 07:41:02;;;;;;;;;;;14.70;74.20;;;;;;5029608;28;20402;-76
2023/09/15 07:43:28;;;;;;;;;;;14.80;74.20;;;;;;5029575;28;19924;-76
2023/09/15 07:45:54;;;;;;;;;;;14.80;74.20;;;;;;5047146;28;19913;-76
2023/09/15 07:48:21;;;;;;;;;;;14.80;74.70;;;;;;5029126;28;19913;-76
2023/09/15 07:50:47;;;;;;;;;;;14.80;74.30;;;;;;5047333;28;20450;-76
2023/09/15 07:53:13;;;;;;;;;;;14.70;74.50;;;;;;5029030;28;19917;-77
2023/09/15 07:55:38;;;;;;;;;;;14.80;74.60;;;;;;5012486;28;19917;-76
2023/09/15 07:58:04;;;;;;;;;;;14.80;74.60;;;;;;5016246;28;19932;-75
2023/09/15 08:00:29;;;;;;;;;;;14.90;74.50;;;;;;5050979;28;20340;-78
2023/09/15 08:02:55;;;;;;;;;;;14.90;74.40;;;;;;5043698;28;19970;-74
2023/09/15 08:05:21;;;;;;;;;;;14.90;74.40;;;;;;5023288;28;19917;-74
2023/09/15 08:07:48;;;;;;;;;;;15.00;74.50;;;;;;5035792;28;19912;-75
2023/09/15 08:10:14;;;;;;;;;;;15.00;74.40;;;;;;5040178;28;19908;-75
2023/09/15 08:12:40;;;;;;;;;;;15.00;74.30;;;;;;5056800;28;19927;-74
2023/09/15 08:15:06;;;;;;;;;;;14.90;74.30;;;;;;5041616;28;19908;-74
2023/09/15 08:17:31;;;;;;;;;;;14.80;74.40;;;;;;5042477;28;19920;-74
2023/09/15 08:19:58;;;;;;;;;;;14.80;74.60;;;;;;5043242;28;19913;-74
2023/09/15 08:22:25;;;;;;;;;;;14.90;74.60;;;;;;5042835;28;19920;-75
2023/09/15 08:24:51;;;;;;;;;;;15.00;74.60;;;;;;5046929;28;20280;-75
2023/09/15 08:27:17;;;;;;;;;;;15.00;74.40;;;;;;5063118;28;19909;-76
2023/09/15 08:29:42;;;;;;;;;;;14.90;74.40;;;;;;5026663;28;20153;-75
2023/09/15 08:32:09;;;;;;;;;;;14.90;74.50;;;;;;5041974;28;19931;-76
2023/09/15 08:34:35;;;;;;;;;;;14.90;74.50;;;;;;5034118;28;19943;-76
2023/09/15 08:37:01;;;;;;;;;;;14.80;74.50;;;;;;5057263;28;20233;-76
2023/09/15 08:39:26;;;;;;;;;;;14.80;74.60;;;;;;5041120;28;19916;-77
2023/09/15 08:42:09;;;;;;;;;;;14.80;74.70;;;;;;5041876;28;20254;-75
2023/09/15 08:44:35;;;;;;;;;;;14.90;74.70;;;;;;5020126;28;19924;-73
2023/09/15 08:47:01;;;;;;;;;;;14.90;74.60;;;;;;5032867;28;19909;-75
2023/09/15 08:49:27;;;;;;;;;;;14.80;74.60;;;;;;5033673;28;19912;-77
2023/09/15 08:51:54;;;;;;;;;;;14.90;74.70;;;;;;5051812;28;19912;-77
2023/09/15 08:54:20;;;;;;;;;;;14.90;74.70;;;;;;5039011;28;19991;-75
2023/09/15 08:56:46;;;;;;;;;;;14.90;74.70;;;;;;5014635;28;19952;-76
2023/09/15 08:59:12;;;;;;;;;;;14.90;74.60;;;;;;5031781;28;19940;-74
2023/09/15 09:01:38;;;;;;;;;;;14.90;74.50;;;;;;5032085;28;19909;-75
2023/09/15 09:04:03;;;;;;;;;;;14.90;74.50;;;;;;5032530;28;20002;-76
2023/09/15 09:06:32;;;;;;;;;;;14.80;74.70;;;;;;5051830;28;19913;-78
2023/09/15 09:08:58;;;;;;;;;;;14.80;74.90;;;;;;5052285;28;19912;-76
2023/09/15 09:11:24;;;;;;;;;;;14.80;74.90;;;;;;5034115;28;19920;-77
2023/09/15 09:13:50;;;;;;;;;;;14.80;75.10;;;;;;5033849;28;19913;-75
2023/09/15 09:16:16;;;;;;;;;;;14.90;75.10;;;;;;5051612;28;19909;-75
2023/09/15 09:18:42;;;;;;;;;;;15.00;75.00;;;;;;5051730;28;19919;-76
2023/09/15 09:21:08;;;;;;;;;;;15.00;74.90;;;;;;5020829;28;19928;-80
2023/09/15 09:23:33;;;;;;;;;;;15.00;74.90;;;;;;5061708;28;19989;-76
2023/09/15 09:26:02;;;;;;;;;;;15.00;74.90;;;;;;5040413;28;19913;-76
2023/09/15 09:28:28;;;;;;;;;;;15.00;75.00;;;;;;5042671;28;19923;-76
2023/09/15 09:30:56;;;;;;;;;;;15.10;74.90;;;;;;5035114;28;19921;-77
2023/09/15 09:33:22;;;;;;;;;;;15.20;74.80;;;;;;5039942;28;19935;-76
2023/09/15 09:35:51;;;;;;;;;;;15.30;74.70;;;;;;5058155;28;20480;-76
2023/09/15 09:38:16;;;;;;;;;;;15.20;74.70;;;;;;5041669;28;19979;-75
2023/09/15 09:40:43;;;;;;;;;;;15.20;74.80;;;;;;5019392;28;19921;-78
2023/09/15 09:43:09;;;;;;;;;;;15.10;74.90;;;;;;5052984;28;20312;-78
2023/09/15 09:45:41;;;;;;;;;;;15.10;74.90;;;;;;5042410;28;19951;-76
2023/09/15 09:48:07;;;;;;;;;;;15.10;74.90;;;;;;5053581;28;19917;-76
2023/09/15 09:50:34;;;;;;;;;;;15.10;74.90;;;;;;5057565;28;20279;-77
2023/09/15 09:53:06;;;;;;;;;;;15.10;74.90;;;;;;5050809;28;20321;-76
2023/09/15 09:55:32;;;;;;;;;;;15.00;75.00;;;;;;5044325;28;20292;-77
2023/09/15 09:58:04;;;;;;;;;;;15.00;75.30;;;;;;5018378;28;19920;-77
2023/09/15 10:00:32;;;;;;;;;;;15.00;75.30;;;;;;5043921;28;19924;-77
2023/09/15 10:02:59;;;;;;;;;;;15.00;75.30;;;;;;5053011;28;19948;-77
2023/09/15 10:05:25;;;;;;;;;;;15.10;75.40;;;;;;5052193;28;19998;-74
2023/09/15 10:07:51;;;;;;;;;;;15.20;75.30;;;;;;5052937;28;19912;-70
2023/09/15 10:10:16;;;;;;;;;;;15.20;75.10;;;;;;5071069;28;19920;-76
2023/09/15 10:12:42;;;;;;;;;;;15.20;75.10;;;;;;5053750;28;20264;-76
2023/09/15 10:15:09;;;;;;;;;;;15.20;75.00;;;;;;5035925;28;19912;-78
2023/09/15 10:17:35;;;;;;;;;;;15.20;75.00;;;;;;5070514;28;19965;-76
2023/09/15 10:20:02;;;;;;;;;;;15.20;75.00;;;;;;5071387;28;19917;-76
2023/09/15 10:22:28;;;;;;;;;;;15.20;75.20;;;;;;5054293;28;19963;-75
2023/09/15 10:24:55;;;;;;;;;;;15.30;75.10;;;;;;5072203;28;19912;-77
2023/09/15 10:27:21;;;;;;;;;;;15.30;75.20;;;;;;5070801;28;19914;-74
2023/09/15 10:29:46;;;;;;;;;;;15.40;75.20;;;;;;5035415;28;20001;-73
2023/09/15 10:32:21;;;;;;;;;;;15.40;75.00;;;;;;5052164;28;19913;-72
2023/09/15 10:34:47;;;;;;;;;;;15.40;75.00;;;;;;5070218;28;20288;-73
2023/09/15 10:37:13;;;;;;;;;;;15.50;74.90;;;;;;5069510;28;19912;-76
2023/09/15 10:39:40;;;;;;;;;;;15.50;75.00;;;;;;5070301;28;20306;-77
2023/09/15 10:42:09;;;;;;;;;;;15.50;75.00;;;;;;5050905;28;19957;-75
2023/09/15 10:44:35;;;;;;;;;;;15.60;75.00;;;;;;5032213;28;19917;-75
2023/09/15 10:47:01;;;;;;;;;;;15.60;75.00;;;;;;5038044;28;20007;-74
2023/09/15 10:49:26;;;;;;;;;;;15.70;75.10;;;;;;5032907;28;19920;-78
2023/09/15 10:51:53;;;;;;;;;;;15.60;74.90;;;;;;5032730;28;19922;-76
2023/09/15 10:54:19;;;;;;;;;;;15.70;74.80;;;;;;5052744;28;19952;-79
2023/09/15 10:56:45;;;;;;;;;;;15.70;74.70;;;;;;5031940;28;19913;-76
2023/09/15 10:59:11;;;;;;;;;;;15.60;74.70;;;;;;5030763;28;19913;-78
2023/09/15 11:01:37;;;;;;;;;;;15.50;74.70;;;;;;5044421;28;20233;-74
2023/09/15 11:04:03;;;;;;;;;;;15.50;74.80;;;;;;5048304;28;19921;-73
2023/09/15 11:06:29;;;;;;;;;;;15.40;74.80;;;;;;5041070;28;20225;-74
2023/09/15 11:08:56;;;;;;;;;;;15.40;74.90;;;;;;5026062;28;19987;-74
2023/09/15 11:11:22;;;;;;;;;;;15.30;75.00;;;;;;5039896;28;19920;-75
2023/09/15 11:13:47;;;;;;;;;;;15.30;75.10;;;;;;5013150;28;20372;-78
2023/09/15 11:16:13;;;;;;;;;;;15.40;75.30;;;;;;5012052;28;19913;-76
2023/09/15 11:18:38;;;;;;;;;;;15.40;75.30;;;;;;5029381;28;19920;-76
2023/09/15 11:21:05;;;;;;;;;;;15.40;75.20;;;;;;5011973;28;19932;-78
2023/09/15 11:23:31;;;;;;;;;;;15.50;75.20;;;;;;5030023;28;19928;-79
2023/09/15 11:26:06;;;;;;;;;;;15.60;75.10;;;;;;5012338;28;19909;-78
2023/09/15 11:28:36;;;;;;;;;;;15.60;75.10;;;;;;5012434;28;19909;-74
2023/09/15 11:31:02;;;;;;;;;;;15.50;75.10;;;;;;5011304;28;19932;-78
2023/09/15 11:33:29;;;;;;;;;;;15.50;75.30;;;;;;5029602;28;20443;-78
2023/09/15 11:35:54;;;;;;;;;;;15.60;75.30;;;;;;5011158;28;19924;-78
2023/09/15 11:38:20;;;;;;;;;;;15.60;75.30;;;;;;5030077;28;20294;-77
2023/09/15 11:40:49;;;;;;;;;;;15.80;75.40;;;;;;5013053;28;19917;-76
2023/09/15 11:43:15;;;;;;;;;;;15.90;75.20;;;;;;5030096;28;19928;-75
2023/09/15 11:45:41;;;;;;;;;;;15.90;75.00;;;;;;5011360;28;19910;-77
2023/09/15 11:48:07;;;;;;;;;;;15.90;75.10;;;;;;5034898;28;20363;-70
2023/09/15 11:50:33;;;;;;;;;;;15.90;75.10;;;;;;5028917;28;19943;-76
2023/09/15 11:52:59;;;;;;;;;;;15.90;75.20;;;;;;5048899;28;20347;-77
2023/09/15 11:55:25;;;;;;;;;;;15.90;75.00;;;;;;5031280;28;20353;-74
2023/09/15 11:57:51;;;;;;;;;;;15.90;74.90;;;;;;5040193;28;19913;-74
2023/09/15 12:00:20;;;;;;;;;;;15.80;75.00;;;;;;5028207;28;20246;-75
2023/09/15 12:02:46;;;;;;;;;;;15.70;75.00;;;;;;5011651;28;19909;-76
2023/09/15 12:05:15;;;;;;;;;;;15.70;75.00;;;;;;5028729;28;19913;-76
2023/09/15 12:07:42;;;;;;;;;;;15.60;75.00;;;;;;5028738;28;19917;-77
2023/09/15 12:10:11;;;;;;;;;;;15.50;75.00;;;;;;5030869;28;19917;-76
2023/09/15 12:12:36;;;;;;;;;;;15.40;75.20;;;;;;5033340;28;20009;-77
2023/09/15 12:15:04;;;;;;;;;;;15.50;75.40;;;;;;5065670;28;20445;-77
2023/09/15 12:17:36;;;;;;;;;;;15.50;75.30;;;;;;5034118;28;19924;-79
2023/09/15 12:20:04;;;;;;;;;;;15.50;75.30;;;;;;5038512;28;19917;-77
2023/09/15 12:22:33;;;;;;;;;;;15.60;75.30;;;;;;5052589;28;20526;-78
2023/09/15 12:24:59;;;;;;;;;;;15.50;75.20;;;;;;5045513;28;19923;-80
2023/09/15 12:27:25;;;;;;;;;;;15.50;75.20;;;;;;5012181;28;19996;-80
2023/09/15 12:29:52;;;;;;;;;;;15.40;75.20;;;;;;5029201;28;19913;-79
2023/09/15 12:32:25;;;;;;;;;;;15.40;75.40;;;;;;5050411;28;19999;-82
2023/09/15 12:34:51;;;;;;;;;;;15.50;75.60;;;;;;5029244;28;20016;-81
2023/09/15 12:37:17;;;;;;;;;;;15.50;76.00;;;;;;5014685;28;19984;-78
2023/09/15 12:39:42;;;;;;;;;;;15.50;75.50;;;;;;5043798;28;20007;-76
2023/09/15 12:42:08;;;;;;;;;;;15.60;75.50;;;;;;5024720;28;20365;-75
2023/09/15 12:44:33;;;;;;;;;;;15.60;75.30;;;;;;5029199;28;19913;-79
2023/09/15 12:46:59;;;;;;;;;;;15.60;75.20;;;;;;5039962;28;19913;-80
2023/09/15 12:49:51;;;;;;;;;;;15.60;75.40;;;;;;5005253;28;19923;-87
2023/09/15 12:52:20;;;;;;;;;;;15.50;75.40;;;;;;5012688;28;20345;-89
2023/09/15 12:57:54;;;;;;;;;;;15.30;75.50;;;;;;5030644;28;20491;-85
2023/09/15 13:00:19;;;;;;;;;;;15.20;75.50;;;;;;5016186;28;19999;-82
2023/09/15 13:02:45;;;;;;;;;;;15.10;75.70;;;;;;5032956;28;19992;-83
2023/09/15 13:05:12;;;;;;;;;;;15.10;75.70;;;;;;5032564;28;19963;-83
2023/09/15 13:07:42;;;;;;;;;;;15.10;75.70;;;;;;5037712;28;19924;-81
2023/09/15 13:10:08;;;;;;;;;;;15.10;75.80;;;;;;5043207;28;19913;-80
2023/09/15 13:12:34;;;;;;;;;;;15.20;75.80;;;;;;5040672;28;19913;-79
2023/09/15 13:14:59;;;;;;;;;;;15.20;75.70;;;;;;5031237;28;20015;-81
2023/09/15 13:17:25;;;;;;;;;;;15.10;75.60;;;;;;5037091;28;19913;-81
2023/09/15 13:19:50;;;;;;;;;;;15.10;75.90;;;;;;5014731;28;19971;-81
2023/09/15 13:22:16;;;;;;;;;;;15.20;75.80;;;;;;5031790;28;19932;-77
2023/09/15 13:24:42;;;;;;;;;;;15.30;75.70;;;;;;5013897;28;19913;-77
2023/09/15 13:27:08;;;;;;;;;;;15.40;75.80;;;;;;5012511;28;19925;-78
2023/09/15 13:29:33;;;;;;;;;;;15.50;75.70;;;;;;5048877;28;19958;-74
2023/09/15 13:31:59;;;;;;;;;;;15.50;75.40;;;;;;5024803;28;19995;-73
2023/09/15 13:34:25;;;;;;;;;;;15.40;75.30;;;;;;5036458;28;19990;-77
2023/09/15 13:36:53;;;;;;;;;;;15.40;75.40;;;;;;5022429;28;19916;-74
2023/09/15 13:39:19;;;;;;;;;;;15.40;75.40;;;;;;5058755;28;20005;-74
2023/09/15 13:41:44;;;;;;;;;;;15.30;75.50;;;;;;5056161;28;19916;-74
2023/09/15 13:44:10;;;;;;;;;;;15.40;76.20;;;;;;5043571;28;19909;-75
2023/09/15 13:46:36;;;;;;;;;;;15.40;75.50;;;;;;5044353;28;19961;-74
2023/09/15 13:49:02;;;;;;;;;;;15.50;75.50;;;;;;5030622;28;20365;-77
2023/09/15 13:51:28;;;;;;;;;;;15.50;75.60;;;;;;5022185;28;19951;-75
2023/09/15 13:53:54;;;;;;;;;;;15.60;75.70;;;;;;5045067;28;19932;-75
2023/09/15 13:56:19;;;;;;;;;;;15.70;75.70;;;;;;5040720;28;19913;-75
2023/09/15 13:58:45;;;;;;;;;;;15.80;75.60;;;;;;5056304;28;19915;-77
2023/09/15 14:01:10;;;;;;;;;;;15.90;75.40;;;;;;5070589;28;19916;-73
2023/09/15 14:03:36;;;;;;;;;;;15.90;75.20;;;;;;5053237;28;20489;-73
2023/09/15 14:06:02;;;;;;;;;;;15.90;75.40;;;;;;5070791;28;19920;-77
2023/09/15 14:08:28;;;;;;;;;;;16.00;75.40;;;;;;5071280;28;19909;-84
2023/09/15 14:10:54;;;;;;;;;;;16.00;75.30;;;;;;5070445;28;19908;-70
2023/09/15 14:13:19;;;;;;;;;;;15.90;75.20;;;;;;5070133;28;19920;-74